Time;durP1;ratioP1;P1;durP2;ratioP2;P2;SDS_P1;SDS_P2;PMS_P1;PMS_P2;Temp;Humidity;BMP_temperature;BMP_pressure;BME280_temperature;BME280_humidity;BME280_pressure;Samples;Min_cycle;Max_cycle;Signal;HPM_P1;HPM_P2
2021/12/13 00:02:45;;;;;;;4.45;3.45;;;7.00;99.90;;;;;;7386974;19;20314;-49
2021/12/13 00:05:17;;;;;;;3.70;3.22;;;7.00;99.90;;;;;;7386286;19;20339;-50
2021/12/13 00:08:00;;;;;;;5.88;3.55;;;7.00;99.90;;;;;;7387490;19;20118;-49
2021/12/13 00:10:36;;;;;;;5.63;3.97;;;7.00;99.90;;;;;;7376624;19;20595;-49
2021/12/13 00:13:10;;;;;;;4.43;3.38;;;7.00;99.90;;;;;;7389551;19;20151;-49
2021/12/13 00:15:56;;;;;;;6.55;3.67;;;7.00;99.90;;;;;;7385857;19;20342;-49
2021/12/13 00:18:28;;;;;;;4.72;3.60;;;7.00;99.90;;;;;;7384999;19;20120;-50
2021/12/13 00:21:25;;;;;;;7.95;4.22;;;7.00;99.90;;;;;;7385327;19;20124;-49
2021/12/13 00:23:59;;;;;;;5.40;4.07;;;7.10;99.90;;;;;;7389554;19;20124;-49
2021/12/13 00:26:31;;;;;;;6.57;3.85;;;7.00;99.90;;;;;;7385940;19;20131;-49
2021/12/13 00:29:15;;;;;;;4.72;4.32;;;7.00;99.90;;;;;;7387397;19;20119;-49
2021/12/13 00:31:45;;;;;;;6.30;4.28;;;7.00;99.90;;;;;;7374919;19;20139;-49
2021/12/13 00:34:28;;;;;;;6.47;4.05;;;7.20;99.90;;;;;;7389666;19;20119;-49
2021/12/13 00:37:35;;;;;;;7.07;3.72;;;7.20;99.90;;;;;;7384430;19;20120;-49
2021/12/13 00:40:10;;;;;;;7.68;4.25;;;7.20;99.90;;;;;;7378378;19;20534;-49
2021/12/13 00:42:50;;;;;;;4.80;3.22;;;7.20;99.90;;;;;;7386262;19;20126;-47
2021/12/13 00:45:22;;;;;;;8.52;3.60;;;7.30;99.90;;;;;;7389077;19;20123;-48
2021/12/13 00:47:50;;;;;;;6.85;4.05;;;7.40;99.90;;;;;;7381855;19;20122;-48
2021/12/13 00:50:25;;;;;;;17.83;9.20;;;7.40;99.90;;;;;;7387195;19;20131;-48
2021/12/13 00:52:53;;;;;;;9.43;5.75;;;7.20;99.90;;;;;;7372473;19;20191;-47
2021/12/13 00:55:30;;;;;;;5.88;4.07;;;7.20;99.90;;;;;;7385048;19;20524;-48
2021/12/13 00:58:17;;;;;;;9.98;4.53;;;7.00;99.90;;;;;;7387842;19;20397;-48
2021/12/13 01:00:44;;;;;;;8.15;4.03;;;7.00;99.90;;;;;;7381351;19;20769;-47
2021/12/13 01:03:26;;;;;;;7.07;4.32;;;6.80;99.90;;;;;;7384944;19;20147;-48
2021/12/13 01:06:28;;;;;;;5.13;4.05;;;6.80;99.90;;;;;;7388174;19;20120;-48
2021/12/13 01:09:35;;;;;;;7.05;3.90;;;6.70;99.90;;;;;;7379007;19;20663;-47
2021/12/13 01:12:09;;;;;;;5.18;3.90;;;6.70;99.90;;;;;;7371896;19;20111;-48
2021/12/13 01:14:57;;;;;;;7.63;4.35;;;6.70;99.90;;;;;;7388052;19;20116;-48
2021/12/13 01:20:44;;;;;;;6.63;4.63;;;6.70;99.90;;;;;;7390445;19;20116;-48
2021/12/13 01:23:27;;;;;;;7.75;5.07;;;6.70;99.90;;;;;;7382934;19;20127;-47
2021/12/13 01:26:13;;;;;;;10.40;4.53;;;6.70;99.90;;;;;;7384640;19;20131;-47
2021/12/13 01:28:45;;;;;;;9.07;4.78;;;6.60;99.90;;;;;;7386432;19;20234;-48
2021/12/13 01:31:19;;;;;;;7.40;5.15;;;6.60;99.90;;;;;;7375661;19;20144;-48
2021/12/13 01:33:53;;;;;;;8.73;4.32;;;6.60;99.90;;;;;;7386104;19;20119;-48
2021/12/13 01:36:27;;;;;;;8.45;4.47;;;6.70;99.90;;;;;;7388532;19;20116;-48
2021/12/13 01:39:09;;;;;;;4.90;3.65;;;6.80;99.90;;;;;;7399802;19;20495;-48
2021/12/13 01:42:08;;;;;;;6.25;4.32;;;6.60;99.90;;;;;;7363814;19;20119;-48
2021/12/13 01:44:42;;;;;;;8.98;4.60;;;6.60;99.90;;;;;;7387668;19;20143;-48
2021/12/13 01:47:20;;;;;;;9.18;5.60;;;6.60;99.90;;;;;;7387168;19;20123;-47
2021/12/13 01:50:00;;;;;;;8.20;5.30;;;6.70;99.90;;;;;;7372395;19;20127;-51
2021/12/13 01:52:32;;;;;;;6.35;5.72;;;6.90;99.90;;;;;;7389406;19;20159;-50
2021/12/13 01:55:04;;;;;;;7.30;4.97;;;7.00;99.90;;;;;;7387394;19;20124;-50
2021/12/13 01:57:48;;;;;;;6.40;3.92;;;7.10;99.90;;;;;;7385962;19;20152;-50
2021/12/13 02:01:08;;;;;;;7.60;4.63;;;6.90;99.90;;;;;;7391119;19;20257;-50
2021/12/13 02:03:36;;;;;;;7.00;4.65;;;6.80;99.90;;;;;;7381699;19;20123;-50
2021/12/13 02:06:07;;;;;;;6.38;4.63;;;6.70;99.90;;;;;;7382783;19;20128;-50
2021/12/13 02:08:44;;;;;;;11.82;4.65;;;6.70;99.90;;;;;;7390236;19;20132;-50
2021/12/13 02:11:16;;;;;;;9.18;5.32;;;6.70;99.90;;;;;;7369485;19;20316;-51
2021/12/13 02:14:07;;;;;;;7.70;4.80;;;6.60;99.90;;;;;;7376568;19;20119;-51
2021/12/13 02:17:09;;;;;;;5.70;4.30;;;6.70;99.90;;;;;;7378892;19;20134;-50
2021/12/13 02:19:42;;;;;;;5.03;3.90;;;6.60;99.90;;;;;;7380526;19;20127;-48
2021/12/13 02:22:34;;;;;;;13.70;4.57;;;6.50;99.90;;;;;;7383689;19;20247;-48
2021/12/13 02:25:14;;;;;;;5.75;4.32;;;6.60;99.90;;;;;;7385453;19;20140;-47
2021/12/13 02:27:58;;;;;;;7.10;4.97;;;6.60;99.90;;;;;;7386815;19;20115;-48
2021/12/13 02:30:33;;;;;;;11.68;5.28;;;6.60;99.90;;;;;;7369948;19;21187;-48
2021/12/13 02:33:05;;;;;;;11.98;5.05;;;6.70;99.90;;;;;;7390998;19;20123;-48
2021/12/13 02:35:36;;;;;;;9.30;5.82;;;6.80;99.90;;;;;;7385134;19;20540;-48
2021/12/13 02:38:07;;;;;;;6.18;4.80;;;6.80;99.90;;;;;;7387017;19;20894;-48
2021/12/13 02:40:40;;;;;;;8.48;5.00;;;6.70;99.90;;;;;;7398571;19;20186;-47
2021/12/13 02:43:13;;;;;;;7.03;4.07;;;6.70;99.90;;;;;;7394081;19;20319;-48
2021/12/13 02:45:45;;;;;;;11.48;4.65;;;6.70;99.90;;;;;;7394343;19;20133;-48
2021/12/13 02:48:24;;;;;;;9.38;5.78;;;6.80;99.90;;;;;;7392956;19;20123;-47
2021/12/13 02:50:59;;;;;;;7.00;4.25;;;6.80;99.90;;;;;;7395555;19;21597;-50
2021/12/13 02:53:41;;;;;;;7.93;5.65;;;6.70;99.90;;;;;;7393401;19;20116;-50
2021/12/13 02:56:08;;;;;;;5.40;4.90;;;6.70;99.90;;;;;;7390680;19;20326;-50
2021/12/13 02:58:43;;;;;;;8.52;4.70;;;6.80;99.90;;;;;;7396908;19;20217;-50
2021/12/13 03:01:22;;;;;;;8.05;4.90;;;6.80;99.90;;;;;;7393942;19;20128;-50
2021/12/13 03:03:54;;;;;;;13.77;5.55;;;6.80;99.90;;;;;;7394568;19;20360;-50
2021/12/13 03:06:28;;;;;;;6.53;4.78;;;6.80;99.90;;;;;;7397717;19;20116;-51
2021/12/13 03:09:06;;;;;;;7.53;4.63;;;6.80;99.90;;;;;;7400868;19;20135;-50
2021/12/13 03:11:34;;;;;;;6.90;4.85;;;6.80;99.90;;;;;;7398451;19;20358;-51
2021/12/13 03:14:08;;;;;;;5.35;4.82;;;6.80;99.90;;;;;;7390915;19;20323;-51
2021/12/13 03:16:46;;;;;;;6.18;4.88;;;6.80;99.90;;;;;;7392043;19;20116;-50
2021/12/13 03:19:39;;;;;;;8.98;4.88;;;6.70;99.90;;;;;;7394834;19;20164;-51
2021/12/13 03:22:29;;;;;;;6.03;4.28;;;6.70;99.90;;;;;;7392728;19;20124;-50
2021/12/13 03:25:05;;;;;;;5.43;4.70;;;6.70;99.90;;;;;;7400044;19;20138;-50
2021/12/13 03:28:02;;;;;;;8.15;5.40;;;6.80;99.90;;;;;;7395818;19;20124;-50
2021/12/13 03:30:35;;;;;;;7.05;4.32;;;6.80;99.90;;;;;;7387216;19;20461;-51
2021/12/13 03:33:10;;;;;;;7.22;4.47;;;6.90;99.90;;;;;;7403159;19;20119;-50
2021/12/13 03:35:57;;;;;;;7.22;4.97;;;6.90;99.90;;;;;;7403622;19;20126;-50
2021/12/13 03:38:41;;;;;;;7.78;4.65;;;7.10;99.90;;;;;;7397087;19;20123;-50
2021/12/13 03:41:12;;;;;;;6.53;4.95;;;7.10;99.90;;;;;;7404460;19;20127;-51
2021/12/13 03:43:42;;;;;;;6.47;4.90;;;7.20;99.90;;;;;;7400263;19;20136;-50
2021/12/13 03:46:17;;;;;;;6.95;4.85;;;7.10;99.90;;;;;;7392685;19;20123;-50
2021/12/13 03:48:47;;;;;;;11.25;5.57;;;7.10;99.90;;;;;;7409749;19;20407;-50
2021/12/13 03:51:21;;;;;;;6.80;5.30;;;7.00;99.90;;;;;;7395987;19;20139;-51
2021/12/13 03:53:52;;;;;;;6.78;4.65;;;7.00;99.90;;;;;;7398342;19;20445;-50
2021/12/13 03:56:23;;;;;;;8.00;5.28;;;7.10;99.90;;;;;;7392196;19;20136;-50
2021/12/13 03:58:55;;;;;;;7.38;4.88;;;7.10;99.90;;;;;;7405735;19;20131;-50
2021/12/13 04:01:29;;;;;;;7.57;4.68;;;7.10;99.90;;;;;;7403428;19;20127;-50
2021/12/13 04:04:01;;;;;;;8.68;5.55;;;7.10;99.90;;;;;;7407594;19;20174;-50
2021/12/13 04:06:30;;;;;;;7.55;5.45;;;7.00;99.90;;;;;;7399834;19;20422;-50
2021/12/13 04:08:58;;;;;;;6.53;5.40;;;7.00;99.90;;;;;;7405410;19;20112;-50
2021/12/13 04:11:28;;;;;;;10.27;5.65;;;6.90;99.90;;;;;;7393346;19;20131;-50
2021/12/13 04:14:08;;;;;;;10.18;4.80;;;6.90;99.90;;;;;;7392397;19;20155;-50
2021/12/13 04:18:00;;;;;;;7.60;5.05;;;6.90;99.90;;;;;;7384623;19;20120;-50
2021/12/13 04:20:19;;;;;;;5.93;4.57;;;7.00;99.90;;;;;;7391628;19;20147;-51
2021/12/13 04:22:52;;;;;;;6.82;5.75;;;6.70;99.90;;;;;;7391601;19;20112;-51
2021/12/13 04:25:26;;;;;;;8.07;4.82;;;6.70;99.90;;;;;;7405744;19;20127;-50
2021/12/13 04:28:02;;;;;;;7.13;5.45;;;6.70;99.90;;;;;;7392839;19;20120;-50
2021/12/13 04:30:42;;;;;;;8.07;4.88;;;6.70;99.90;;;;;;7379254;19;20139;-51
2021/12/13 04:33:24;;;;;;;7.20;5.97;;;6.60;99.90;;;;;;7399889;19;20127;-50
2021/12/13 04:35:57;;;;;;;10.60;5.30;;;6.60;99.90;;;;;;7396509;19;20116;-51
2021/12/13 04:38:40;;;;;;;7.53;5.28;;;6.60;99.90;;;;;;7401349;19;20177;-50
2021/12/13 04:41:09;;;;;;;8.70;6.28;;;6.60;99.90;;;;;;7401906;19;20334;-50
2021/12/13 04:43:38;;;;;;;9.85;5.78;;;6.60;99.90;;;;;;7396587;19;20547;-51
2021/12/13 04:46:11;;;;;;;7.55;5.88;;;6.70;99.90;;;;;;7386673;19;20112;-51
2021/12/13 04:48:42;;;;;;;9.60;5.55;;;6.70;99.90;;;;;;7389138;19;20116;-50
2021/12/13 04:51:13;;;;;;;7.75;5.45;;;6.60;99.90;;;;;;7387687;19;20422;-50
2021/12/13 04:53:48;;;;;;;9.77;5.35;;;6.60;99.90;;;;;;7399844;19;20128;-50
2021/12/13 04:56:23;;;;;;;12.77;6.70;;;6.60;99.90;;;;;;7389295;19;20147;-50
2021/12/13 04:58:54;;;;;;;7.78;5.30;;;6.60;99.90;;;;;;7384629;19;20115;-50
2021/12/13 05:01:27;;;;;;;8.75;5.32;;;6.70;99.90;;;;;;7376616;19;20131;-50
2021/12/13 05:04:05;;;;;;;11.15;6.22;;;6.60;99.90;;;;;;7379670;19;20120;-50
2021/12/13 05:06:39;;;;;;;10.50;6.05;;;6.50;99.90;;;;;;7385495;19;20322;-50
2021/12/13 05:09:10;;;;;;;9.02;5.28;;;6.50;99.90;;;;;;7389554;19;20119;-50
2021/12/13 05:11:46;;;;;;;8.48;6.25;;;6.60;99.90;;;;;;7391341;19;20167;-50
2021/12/13 05:14:13;;;;;;;8.25;5.45;;;6.60;99.90;;;;;;7390300;19;20119;-50
2021/12/13 05:16:50;;;;;;;7.85;5.35;;;6.60;99.90;;;;;;7391189;19;20123;-50
2021/12/13 05:19:36;;;;;;;10.23;4.47;;;6.70;99.90;;;;;;7388909;19;20315;-51
2021/12/13 05:22:05;;;;;;;10.73;5.88;;;6.70;99.90;;;;;;7390101;19;20128;-50
2021/12/13 05:24:40;;;;;;;7.65;5.60;;;6.80;99.90;;;;;;7388033;19;20115;-51
2021/12/13 05:27:25;;;;;;;10.45;5.68;;;6.80;99.90;;;;;;7389099;19;20120;-50
2021/12/13 05:29:55;;;;;;;6.80;4.93;;;6.80;99.90;;;;;;7388287;19;20147;-50
2021/12/13 05:32:32;;;;;;;8.00;5.50;;;6.80;99.90;;;;;;7380483;19;20325;-50
2021/12/13 05:35:20;;;;;;;8.10;5.35;;;6.70;99.90;;;;;;7389009;19;20116;-50
2021/12/13 05:38:00;;;;;;;7.00;5.88;;;6.80;99.90;;;;;;7390069;19;20171;-51
2021/12/13 05:40:29;;;;;;;7.32;5.53;;;6.80;99.90;;;;;;7393047;19;20118;-51
2021/12/13 05:43:11;;;;;;;8.70;6.25;;;7.00;99.90;;;;;;7389663;19;20122;-50
2021/12/13 05:45:58;;;;;;;6.22;5.30;;;7.00;99.90;;;;;;7394662;19;20334;-52
2021/12/13 05:48:46;;;;;;;11.32;6.30;;;7.00;99.90;;;;;;7389529;19;20131;-51
2021/12/13 05:51:33;;;;;;;6.25;5.55;;;7.00;99.90;;;;;;7386236;19;20123;-50
2021/12/13 05:54:23;;;;;;;7.90;5.65;;;7.10;99.90;;;;;;7391898;19;20120;-50
2021/12/13 05:57:12;;;;;;;9.57;6.07;;;7.00;99.90;;;;;;7389365;19;20314;-50
2021/12/13 05:59:53;;;;;;;8.35;6.30;;;7.00;99.90;;;;;;7403005;19;20152;-50
2021/12/13 06:03:02;;;;;;;6.80;5.50;;;6.80;99.90;;;;;;7390932;19;24501;-51
2021/12/13 06:05:42;;;;;;;8.00;5.88;;;6.80;99.90;;;;;;7390631;19;20124;-51
2021/12/13 06:08:18;;;;;;;7.22;5.18;;;6.70;99.90;;;;;;7386664;19;20108;-50
2021/12/13 06:10:51;;;;;;;6.95;5.20;;;6.80;99.90;;;;;;7391037;19;20205;-50
2021/12/13 06:13:43;;;;;;;5.80;5.10;;;6.80;99.90;;;;;;7394700;19;20124;-51
2021/12/13 06:16:44;;;;;;;7.70;4.93;;;6.90;99.90;;;;;;7390698;19;20203;-51
2021/12/13 06:19:22;;;;;;;5.75;4.65;;;7.00;99.90;;;;;;7394889;19;20127;-51
2021/12/13 06:22:05;;;;;;;7.15;4.97;;;6.90;99.90;;;;;;7406036;19;20271;-50
2021/12/13 06:24:34;;;;;;;6.40;4.75;;;6.90;99.90;;;;;;7393223;19;20140;-51
2021/12/13 06:27:07;;;;;;;9.57;5.18;;;7.00;99.90;;;;;;7395645;19;20224;-50
2021/12/13 06:29:59;;;;;;;11.02;5.95;;;7.00;99.90;;;;;;7398524;19;20153;-51
2021/12/13 06:32:34;;;;;;;8.75;5.50;;;6.90;99.90;;;;;;7385090;19;20154;-51
2021/12/13 06:35:26;;;;;;;11.40;6.45;;;6.90;99.90;;;;;;7396864;19;20123;-50
2021/12/13 06:37:57;;;;;;;7.63;6.00;;;6.90;99.90;;;;;;7387184;19;20158;-51
2021/12/13 06:40:31;;;;;;;8.27;5.40;;;7.00;99.90;;;;;;7404181;19;20124;-50
2021/12/13 06:43:01;;;;;;;9.75;5.72;;;7.00;99.90;;;;;;7392089;19;20123;-52
2021/12/13 06:45:33;;;;;;;7.53;5.80;;;7.00;99.90;;;;;;7410287;19;20134;-52
2021/12/13 06:48:02;;;;;;;9.57;6.00;;;7.00;99.90;;;;;;7408652;19;20189;-51
2021/12/13 06:50:33;;;;;;;8.70;4.85;;;7.20;99.90;;;;;;7396656;19;20131;-50
2021/12/13 06:53:16;;;;;;;8.70;6.03;;;7.20;99.90;;;;;;7395678;19;20179;-50
2021/12/13 06:55:51;;;;;;;10.27;5.70;;;7.10;99.90;;;;;;7401401;19;20311;-50
2021/12/13 06:58:22;;;;;;;9.80;6.85;;;7.10;99.90;;;;;;7412456;19;20143;-50
2021/12/13 07:01:03;;;;;;;12.32;6.28;;;7.10;99.90;;;;;;7407381;19;20163;-50
2021/12/13 07:03:34;;;;;;;10.18;6.22;;;7.00;99.90;;;;;;7412937;19;20130;-48
2021/12/13 07:06:05;;;;;;;9.32;6.15;;;6.90;99.90;;;;;;7404283;19;20230;-48
2021/12/13 07:08:41;;;;;;;12.32;8.35;;;7.00;99.90;;;;;;7409052;19;20159;-48
2021/12/13 07:11:12;;;;;;;10.15;7.10;;;7.10;99.90;;;;;;7408240;19;20501;-48
2021/12/13 07:13:42;;;;;;;10.13;6.95;;;7.00;99.90;;;;;;7412102;19;20140;-48
2021/12/13 07:16:17;;;;;;;9.02;5.93;;;7.10;99.90;;;;;;7404975;19;20132;-48
2021/12/13 07:19:20;;;;;;;12.57;7.20;;;7.20;99.90;;;;;;7409241;19;20127;-48
2021/12/13 07:21:54;;;;;;;7.45;6.10;;;7.20;99.90;;;;;;7405198;19;20127;-51
2021/12/13 07:24:42;;;;;;;7.75;5.90;;;7.20;99.90;;;;;;7406347;19;20398;-52
2021/12/13 07:27:17;;;;;;;10.00;7.35;;;7.20;99.90;;;;;;7406136;19;20116;-51
2021/12/13 07:29:53;;;;;;;14.32;7.60;;;7.10;99.90;;;;;;7405616;19;20200;-50
2021/12/13 07:32:40;;;;;;;8.95;5.97;;;7.00;99.90;;;;;;7395020;19;20203;-50
2021/12/13 07:35:31;;;;;;;10.60;6.90;;;6.90;99.90;;;;;;7401904;19;20119;-51
2021/12/13 07:38:06;;;;;;;15.07;7.90;;;6.90;99.90;;;;;;7409222;19;20135;-50
2021/12/13 07:40:46;;;;;;;15.05;9.02;;;6.80;99.90;;;;;;7401513;19;20120;-50
2021/12/13 07:43:37;;;;;;;12.43;8.15;;;6.80;99.90;;;;;;7408156;19;20125;-50
2021/12/13 07:46:27;;;;;;;12.98;9.07;;;6.90;99.90;;;;;;7405211;19;20214;-50
2021/12/13 07:49:10;;;;;;;15.25;9.18;;;7.00;99.90;;;;;;7411365;19;20128;-50
2021/12/13 07:51:51;;;;;;;11.13;7.80;;;7.10;99.90;;;;;;7400820;19;20123;-52
2021/12/13 07:54:20;;;;;;;12.20;8.00;;;7.10;99.90;;;;;;7405117;19;20120;-50
2021/12/13 07:56:52;;;;;;;11.93;8.25;;;7.10;99.90;;;;;;7407875;19;20318;-51
2021/12/13 07:59:22;;;;;;;13.88;8.07;;;7.20;99.90;;;;;;7401905;19;20151;-51
2021/12/13 08:01:53;;;;;;;13.98;9.10;;;7.20;99.90;;;;;;7395924;19;20124;-50
2021/12/13 08:04:26;;;;;;;16.75;9.90;;;7.10;99.90;;;;;;7407941;19;20152;-50
2021/12/13 08:06:55;;;;;;;16.55;10.95;;;7.10;99.90;;;;;;7403597;19;20346;-50
2021/12/13 08:09:29;;;;;;;15.68;9.73;;;7.10;99.90;;;;;;7409651;19;20128;-50
2021/12/13 08:12:04;;;;;;;11.90;8.57;;;7.20;99.90;;;;;;7402975;19;21020;-50
2021/12/13 08:14:38;;;;;;;13.70;8.40;;;7.20;99.90;;;;;;7404132;19;20123;-50
2021/12/13 08:17:39;;;;;;;9.60;7.28;;;7.10;99.90;;;;;;7401023;19;20132;-50
2021/12/13 08:20:22;;;;;;;11.20;6.90;;;7.20;99.90;;;;;;7395085;19;20131;-50
2021/12/13 08:22:54;;;;;;;12.38;8.57;;;7.30;99.90;;;;;;7406271;19;20183;-50
2021/12/13 08:25:29;;;;;;;12.93;9.88;;;7.40;99.90;;;;;;7402500;19;20120;-51
2021/12/13 08:27:55;;;;;;;17.35;9.75;;;7.60;99.90;;;;;;7402776;19;20306;-51
2021/12/13 08:30:31;;;;;;;12.93;9.38;;;7.70;99.90;;;;;;7393864;19;20120;-51
2021/12/13 08:33:09;;;;;;;11.88;9.10;;;7.60;99.90;;;;;;7406146;19;20123;-51
2021/12/13 08:35:57;;;;;;;15.07;9.07;;;7.80;99.90;;;;;;7394476;19;20193;-50
2021/12/13 08:38:28;;;;;;;11.90;9.07;;;7.80;99.90;;;;;;7404198;19;20235;-50
2021/12/13 08:40:56;;;;;;;11.23;8.20;;;7.90;99.90;;;;;;7408992;19;20154;-52
2021/12/13 08:43:46;;;;;;;12.05;7.40;;;8.00;99.90;;;;;;7402362;19;20119;-51
2021/12/13 08:46:33;;;;;;;10.82;7.15;;;8.00;99.90;;;;;;7406306;19;20131;-51
2021/12/13 08:49:10;;;;;;;11.18;7.88;;;8.10;99.90;;;;;;7400536;19;20323;-51
2021/12/13 08:51:50;;;;;;;9.60;7.25;;;8.30;99.90;;;;;;7406279;19;20120;-52
2021/12/13 08:54:32;;;;;;;12.40;7.90;;;8.50;99.90;;;;;;7401908;19;20115;-52
2021/12/13 08:57:00;;;;;;;13.05;9.13;;;8.60;99.90;;;;;;7409559;19;20127;-52
2021/12/13 08:59:29;;;;;;;15.23;7.53;;;8.80;99.90;;;;;;7407435;19;20116;-49
2021/12/13 09:01:58;;;;;;;14.63;7.28;;;9.00;99.90;;;;;;7401245;19;20588;-49
2021/12/13 09:04:26;;;;;;;10.13;7.28;;;9.10;99.90;;;;;;7403763;19;20303;-49
2021/12/13 09:06:59;;;;;;;10.15;7.10;;;9.30;99.90;;;;;;7401607;19;20120;-48
2021/12/13 09:09:30;;;;;;;11.05;7.22;;;9.30;99.90;;;;;;7406603;19;20215;-49
2021/12/13 09:12:02;;;;;;;11.27;7.45;;;9.20;99.90;;;;;;7401326;19;20135;-49
2021/12/13 09:14:40;;;;;;;10.98;7.18;;;9.30;99.90;;;;;;7397010;19;20120;-49
2021/12/13 09:17:23;;;;;;;11.48;7.65;;;9.30;99.90;;;;;;7402353;19;20127;-49
2021/12/13 09:19:50;;;;;;;10.35;7.10;;;9.30;99.90;;;;;;7399361;19;20128;-49
2021/12/13 09:22:27;;;;;;;15.75;7.38;;;9.50;99.90;;;;;;7402975;19;20199;-49
2021/12/13 09:25:18;;;;;;;11.50;6.53;;;9.70;99.90;;;;;;7404945;19;20140;-49
2021/12/13 09:27:50;;;;;;;10.13;6.90;;;9.80;99.90;;;;;;7403218;19;20146;-49
2021/12/13 09:30:38;;;;;;;9.27;6.75;;;9.90;99.90;;;;;;7399246;19;20120;-52
2021/12/13 09:33:30;;;;;;;11.23;7.20;;;9.70;99.90;;;;;;7403320;19;20132;-52
2021/12/13 09:36:08;;;;;;;9.13;6.90;;;9.50;99.90;;;;;;7403355;19;20136;-52
2021/12/13 09:38:52;;;;;;;10.63;6.97;;;9.40;99.90;;;;;;7402371;19;24295;-52
2021/12/13 09:41:21;;;;;;;11.75;7.05;;;9.40;99.90;;;;;;7406359;19;20147;-52
2021/12/13 09:44:15;;;;;;;9.63;6.03;;;9.50;99.90;;;;;;7402021;19;20120;-53
2021/12/13 09:46:41;;;;;;;14.90;7.43;;;9.70;99.90;;;;;;7404604;19;20120;-52
2021/12/13 09:49:19;;;;;;;9.45;6.80;;;9.90;99.90;;;;;;7402664;19;20131;-52
2021/12/13 09:51:57;;;;;;;9.60;7.07;;;9.90;99.90;;;;;;7405094;19;20480;-52
2021/12/13 09:54:37;;;;;;;8.70;5.80;;;10.10;99.90;;;;;;7402369;19;20357;-52
2021/12/13 09:57:13;;;;;;;8.60;5.93;;;10.40;99.90;;;;;;7403921;19;20371;-52
2021/12/13 09:59:50;;;;;;;9.43;6.57;;;10.50;99.90;;;;;;7400576;19;20459;-52
2021/12/13 10:02:25;;;;;;;10.43;7.10;;;10.70;99.90;;;;;;7406222;19;20462;-52
2021/12/13 10:04:59;;;;;;;7.40;5.70;;;10.90;99.90;;;;;;7390125;19;20368;-52
2021/12/13 10:07:30;;;;;;;7.73;5.83;;;11.00;99.90;;;;;;7400399;19;20377;-52
2021/12/13 10:10:08;;;;;;;9.07;5.70;;;11.10;99.90;;;;;;7400235;19;20378;-52
2021/12/13 10:12:43;;;;;;;8.13;5.93;;;11.10;99.90;;;;;;7398337;19;20372;-52
2021/12/13 10:15:15;;;;;;;6.93;5.10;;;11.30;99.90;;;;;;7400021;19;20372;-52
2021/12/13 10:17:47;;;;;;;7.93;6.30;;;11.10;99.90;;;;;;7400130;19;20364;-52
2021/12/13 10:20:22;;;;;;;7.17;5.07;;;11.30;99.90;;;;;;7397547;19;20761;-52
2021/12/13 10:22:51;;;;;;;6.80;5.20;;;11.10;99.90;;;;;;7394546;19;20397;-52
2021/12/13 10:25:38;;;;;;;7.60;5.00;;;11.30;99.90;;;;;;7403826;19;20609;-52
2021/12/13 10:28:11;;;;;;;5.47;4.93;;;11.50;99.90;;;;;;7398086;19;20384;-52
2021/12/13 10:30:47;;;;;;;6.10;5.30;;;11.60;99.90;;;;;;7393287;19;20570;-52
2021/12/13 10:33:20;;;;;;;6.27;4.60;;;11.60;99.90;;;;;;7392238;19;20364;-52
2021/12/13 10:35:53;;;;;;;5.57;4.90;;;11.50;99.90;;;;;;7399889;19;20438;-52
2021/12/13 10:38:27;;;;;;;6.00;4.37;;;11.40;99.90;;;;;;7402316;19;20582;-52
2021/12/13 10:41:08;;;;;;;5.20;4.27;;;11.30;99.90;;;;;;7404877;19;20364;-49
2021/12/13 10:43:45;;;;;;;6.60;5.07;;;11.10;99.90;;;;;;7403575;19;21090;-49
2021/12/13 10:46:27;;;;;;;9.00;5.83;;;11.20;99.90;;;;;;7401299;19;21062;-49
2021/12/13 10:49:04;;;;;;;8.83;5.00;;;11.20;99.90;;;;;;7400857;19;20380;-49
2021/12/13 10:51:45;;;;;;;8.10;5.40;;;11.20;99.90;;;;;;7404930;19;20383;-49
2021/12/13 10:54:19;;;;;;;14.17;11.30;;;11.30;99.90;;;;;;7401544;19;20387;-49
2021/12/13 10:57:01;;;;;;;8.60;6.80;;;11.30;99.90;;;;;;7401902;19;20579;-53
2021/12/13 10:59:32;;;;;;;7.07;5.47;;;11.30;99.90;;;;;;7404499;19;20703;-50
2021/12/13 11:02:09;;;;;;;6.50;4.70;;;11.30;99.90;;;;;;7401984;19;20501;-51
2021/12/13 11:04:50;;;;;;;7.20;4.93;;;11.30;99.90;;;;;;7406828;19;20363;-52
2021/12/13 11:07:22;;;;;;;7.33;5.30;;;11.30;99.90;;;;;;7412450;19;20368;-51
2021/12/13 11:09:55;;;;;;;6.40;5.50;;;11.30;99.90;;;;;;7408231;19;20376;-51
2021/12/13 11:12:27;;;;;;;6.50;5.10;;;11.00;99.90;;;;;;7405982;19;20876;-52
2021/12/13 11:15:04;;;;;;;8.57;5.37;;;10.90;99.90;;;;;;7409633;19;20578;-52
2021/12/13 11:17:34;;;;;;;7.60;5.23;;;11.10;99.90;;;;;;7407103;19;20404;-53
2021/12/13 11:20:10;;;;;;;11.57;5.73;;;11.20;99.90;;;;;;7402294;19;20376;-52
2021/12/13 11:22:39;;;;;;;8.47;4.50;;;11.30;99.90;;;;;;7406731;19;20371;-52
2021/12/13 11:25:32;;;;;;;3.80;3.00;;;11.10;99.90;;;;;;7405559;19;20380;-52
2021/12/13 11:28:04;;;;;;;6.40;3.40;;;10.80;99.90;;;;;;7409185;19;20371;-52
2021/12/13 11:30:34;;;;;;;4.60;3.20;;;10.70;99.90;;;;;;7400187;19;20416;-52
2021/12/13 11:33:02;;;;;;;3.40;2.77;;;10.60;99.90;;;;;;7400289;19;20356;-52
2021/12/13 11:35:47;;;;;;;4.00;2.90;;;10.50;99.90;;;;;;7404987;19;20436;-52
2021/12/13 11:38:53;;;;;;;2.73;2.40;;;10.50;99.90;;;;;;7412474;19;20380;-52
2021/12/13 11:41:50;;;;;;;4.07;2.43;;;10.60;99.90;;;;;;7401710;19;20447;-52
2021/12/13 11:44:52;;;;;;;3.40;3.10;;;10.90;99.90;;;;;;7400882;19;20358;-52
2021/12/13 11:47:46;;;;;;;6.90;3.50;;;11.20;99.90;;;;;;7407661;19;20379;-53
2021/12/13 11:50:36;;;;;;;3.67;3.33;;;11.40;99.90;;;;;;7404628;19;20400;-52
2021/12/13 11:53:38;;;;;;;3.70;2.80;;;11.50;99.90;;;;;;7409157;19;20360;-53
2021/12/13 11:56:24;;;;;;;5.40;3.33;;;11.50;99.90;;;;;;7408142;19;20721;-52
2021/12/13 11:59:08;;;;;;;3.60;2.50;;;11.40;99.90;;;;;;7404408;19;20368;-52
2021/12/13 12:02:18;;;;;;;3.00;2.63;;;11.50;99.90;;;;;;7408656;19;20424;-52
2021/12/13 12:05:40;;;;;;;4.00;2.40;;;11.60;99.90;;;;;;7407048;19;20356;-52
2021/12/13 12:08:31;;;;;;;3.50;2.80;;;11.60;99.90;;;;;;7401647;19;20560;-52
2021/12/13 12:11:39;;;;;;;4.73;3.90;;;11.60;99.90;;;;;;7409495;19;20365;-49
2021/12/13 12:14:12;;;;;;;5.67;4.33;;;11.70;99.90;;;;;;7407961;19;20464;-49
2021/12/13 12:16:48;;;;;;;7.63;5.47;;;11.70;99.90;;;;;;7403878;19;20375;-48
2021/12/13 12:19:40;;;;;;;8.00;5.13;;;11.70;99.90;;;;;;7402728;19;20392;-49
2021/12/13 12:22:15;;;;;;;12.13;6.73;;;11.80;99.90;;;;;;7402670;19;20349;-48
2021/12/13 12:24:48;;;;;;;8.10;5.60;;;11.80;99.90;;;;;;7403171;19;20404;-48
2021/12/13 12:27:27;;;;;;;11.20;6.50;;;11.90;99.90;;;;;;7405837;19;20363;-48
2021/12/13 12:30:21;;;;;;;8.67;6.20;;;11.70;99.90;;;;;;7403115;19;20413;-48
2021/12/13 12:32:57;;;;;;;9.97;6.70;;;11.50;99.90;;;;;;7398149;19;20578;-48
2021/12/13 12:35:36;;;;;;;9.97;6.00;;;11.50;99.90;;;;;;7399756;19;20416;-48
2021/12/13 12:38:27;;;;;;;9.13;6.40;;;11.40;99.90;;;;;;7408021;19;20368;-49
2021/12/13 12:41:11;;;;;;;9.40;6.27;;;11.30;99.90;;;;;;7405004;19;20376;-48
2021/12/13 12:43:50;;;;;;;9.57;6.30;;;11.30;99.90;;;;;;7384852;19;20730;-48
2021/12/13 12:46:18;;;;;;;9.70;5.70;;;11.30;99.90;;;;;;7391092;19;20388;-49
2021/12/13 12:48:53;;;;;;;9.73;7.17;;;11.30;99.90;;;;;;7391411;19;20380;-49
2021/12/13 12:51:29;;;;;;;8.93;6.00;;;11.20;99.90;;;;;;7372464;19;20379;-49
2021/12/13 12:54:12;;;;;;;9.53;7.10;;;11.20;99.90;;;;;;7391459;19;20598;-49
2021/12/13 12:56:56;;;;;;;11.37;7.17;;;11.20;99.90;;;;;;7393187;19;20813;-48
2021/12/13 12:59:24;;;;;;;11.80;7.50;;;11.20;99.90;;;;;;7399484;19;20427;-48
2021/12/13 13:01:58;;;;;;;13.70;7.30;;;11.00;99.90;;;;;;7392146;19;20371;-50
2021/12/13 13:04:32;;;;;;;11.33;7.30;;;10.90;99.90;;;;;;7399141;19;20468;-50
2021/12/13 13:07:06;;;;;;;10.97;7.33;;;10.90;99.90;;;;;;7390180;19;20404;-50
2021/12/13 13:09:40;;;;;;;12.87;8.70;;;10.60;99.90;;;;;;7382723;19;20364;-50
2021/12/13 13:12:36;;;;;;;9.87;8.30;;;10.50;99.90;;;;;;7387551;19;20568;-50
2021/12/13 13:15:38;;;;;;;13.83;8.03;;;10.40;99.90;;;;;;7398616;19;20408;-50
2021/12/13 13:18:12;;;;;;;10.90;7.60;;;10.40;99.90;;;;;;7368608;19;20408;-51
2021/12/13 13:20:53;;;;;;;10.43;7.37;;;10.60;99.90;;;;;;7384646;19;21380;-54
2021/12/13 13:23:25;;;;;;;8.77;6.73;;;10.70;99.90;;;;;;7387956;19;20524;-54
2021/12/13 13:25:58;;;;;;;11.33;7.20;;;10.70;99.90;;;;;;7376358;19;20372;-54
2021/12/13 13:28:29;;;;;;;11.20;6.70;;;10.80;99.90;;;;;;7393590;19;20818;-54
2021/12/13 13:31:10;;;;;;;11.07;7.50;;;10.70;99.90;;;;;;7383913;19;20416;-54
2021/12/13 13:33:41;;;;;;;14.73;8.13;;;10.40;99.90;;;;;;7395935;19;20368;-54
2021/12/13 13:36:12;;;;;;;12.55;7.93;;;10.20;99.90;;;;;;7387192;19;20635;-54
2021/12/13 13:38:43;;;;;;;13.07;7.90;;;10.30;99.90;;;;;;7397970;19;20151;-53
2021/12/13 13:41:20;;;;;;;10.73;7.70;;;10.40;99.90;;;;;;7399503;19;20582;-53
2021/12/13 13:43:49;;;;;;;9.27;7.20;;;10.50;99.90;;;;;;7396617;19;20356;-54
2021/12/13 13:46:19;;;;;;;14.27;7.93;;;10.50;99.90;;;;;;7389411;19;20352;-54
2021/12/13 13:48:46;;;;;;;11.43;8.40;;;10.50;99.90;;;;;;7389501;19;20364;-54
2021/12/13 13:51:17;;;;;;;15.50;7.63;;;10.50;99.90;;;;;;7384212;19;20404;-51
2021/12/13 13:53:53;;;;;;;12.63;8.60;;;10.30;99.90;;;;;;7387326;19;20500;-51